createdAt,value
2019-03-15T00:01:45.406Z,2.52
2019-03-15T00:04:13.339Z,3.90
2019-03-15T00:06:41.266Z,3.10
2019-03-15T00:09:09.116Z,2.67
2019-03-15T00:11:37.101Z,2.87
2019-03-15T00:14:05.854Z,2.30
2019-03-15T00:16:34.789Z,3.50
2019-03-15T00:19:02.662Z,3.52
2019-03-15T00:21:30.553Z,2.95
2019-03-15T00:23:59.632Z,2.90
2019-03-15T00:26:27.530Z,4.05
2019-03-15T00:28:55.451Z,2.60
2019-03-15T00:31:23.388Z,3.65
2019-03-15T00:33:51.269Z,3.27
2019-03-15T00:36:20.539Z,3.27
2019-03-15T00:38:48.434Z,2.90
2019-03-15T00:41:16.363Z,3.52
2019-03-15T00:43:49.065Z,3.70
2019-03-15T00:46:15.423Z,2.80
2019-03-15T00:48:43.677Z,3.20
2019-03-15T00:51:11.682Z,3.42
2019-03-15T00:53:39.638Z,3.33
2019-03-15T00:56:07.513Z,3.12
2019-03-15T00:58:37.755Z,2.90
2019-03-15T01:01:05.577Z,3.55
2019-03-15T01:03:33.519Z,2.80
2019-03-15T01:06:01.455Z,3.25
2019-03-15T01:08:29.434Z,2.75
2019-03-15T01:10:57.298Z,2.72
2019-03-15T01:13:25.229Z,2.60
2019-03-15T01:15:55.265Z,2.87
2019-03-15T01:18:23.246Z,2.70
2019-03-15T01:20:51.183Z,2.72
2019-03-15T01:23:19.033Z,2.60
2019-03-15T01:25:46.942Z,2.65
2019-03-15T01:28:14.854Z,3.20
2019-03-15T01:30:42.750Z,2.40
2019-03-15T01:33:11.567Z,3.08
2019-03-15T01:35:39.514Z,2.10
2019-03-15T01:38:07.499Z,2.98
2019-03-15T01:40:35.341Z,2.95
2019-03-15T01:43:05.725Z,3.20
2019-03-15T01:45:35.077Z,2.80
2019-03-15T01:48:03.165Z,2.70
2019-03-15T01:50:32.148Z,2.83
2019-03-15T01:53:00.034Z,2.65
2019-03-15T01:55:27.941Z,2.92
2019-03-15T01:57:55.802Z,2.20
2019-03-15T02:00:23.788Z,3.85
2019-03-15T02:02:53.809Z,3.33
2019-03-15T02:05:21.726Z,1.98
2019-03-15T02:07:49.731Z,2.95
2019-03-15T02:10:22.014Z,2.90
2019-03-15T02:12:50.217Z,2.60
2019-03-15T02:15:18.533Z,4.67
2019-03-15T02:17:46.629Z,2.50
2019-03-15T02:20:14.593Z,3.83
2019-03-15T02:22:42.501Z,2.98
2019-03-15T02:25:10.427Z,2.20
2019-03-15T02:27:38.335Z,2.22
2019-03-15T02:30:06.241Z,2.40
2019-03-15T02:32:34.102Z,2.98
2019-03-15T02:35:02.053Z,2.95
2019-03-15T02:37:31.843Z,2.50
2019-03-15T02:40:02.241Z,2.90
2019-03-15T02:42:30.077Z,2.58
2019-03-15T02:44:57.947Z,2.10
2019-03-15T02:47:26.986Z,3.55
2019-03-15T02:49:54.924Z,2.35
2019-03-15T02:52:23.007Z,2.58
2019-03-15T02:54:53.854Z,2.90
2019-03-15T02:57:22.159Z,2.50
2019-03-15T02:59:50.174Z,3.42
2019-03-15T03:02:19.180Z,3.30
2019-03-15T03:04:48.618Z,4.08
2019-03-15T03:07:17.954Z,2.37
2019-03-15T03:09:45.866Z,2.80
2019-03-15T03:12:13.992Z,3.20
2019-03-15T03:14:41.822Z,4.67
2019-03-15T03:17:09.856Z,2.83
2019-03-15T03:19:37.741Z,2.55
2019-03-15T03:22:06.029Z,2.87
2019-03-15T03:24:33.899Z,2.60
2019-03-15T03:27:01.899Z,4.08
2019-03-15T03:29:29.890Z,3.27
2019-03-15T03:31:59.074Z,3.17
2019-03-15T03:34:27.031Z,2.72
2019-03-15T03:36:58.202Z,2.83
2019-03-15T03:39:26.223Z,2.70
2019-03-15T03:41:56.861Z,2.80
2019-03-15T03:44:25.858Z,3.35
2019-03-15T03:46:53.802Z,3.50
2019-03-15T03:49:21.717Z,3.05
2019-03-15T03:51:49.641Z,3.25
2019-03-15T03:54:17.637Z,3.00
2019-03-15T03:56:45.495Z,2.80
2019-03-15T03:59:13.402Z,3.30
2019-03-15T04:01:43.321Z,2.80
2019-03-15T04:04:11.278Z,2.40
2019-03-15T04:06:39.167Z,3.00
2019-03-15T04:09:07.910Z,3.00
2019-03-15T04:11:36.274Z,2.70
2019-03-15T04:14:04.192Z,2.52
2019-03-15T04:16:32.651Z,3.35
2019-03-15T04:19:02.237Z,2.65
2019-03-15T04:21:31.300Z,2.40
2019-03-15T04:24:00.774Z,2.30
2019-03-15T04:26:28.658Z,3.17
2019-03-15T04:28:57.243Z,2.60
2019-03-15T04:31:25.733Z,2.90
2019-03-15T04:33:53.587Z,2.52
2019-03-15T04:36:23.885Z,3.77
2019-03-15T04:38:51.839Z,2.62
2019-03-15T04:41:19.691Z,2.98
2019-03-15T04:43:47.599Z,3.22
2019-03-15T04:46:15.495Z,2.25
2019-03-15T04:48:45.251Z,3.02
2019-03-15T04:51:14.329Z,3.05
2019-03-15T04:53:44.196Z,3.67
2019-03-15T04:56:12.134Z,2.10
2019-03-15T04:58:40.003Z,2.20
2019-03-15T05:01:14.122Z,3.30
2019-03-15T05:03:42.088Z,3.15
2019-03-15T05:06:10.125Z,3.30
2019-03-15T05:08:39.774Z,3.00
2019-03-15T05:11:09.641Z,3.80
2019-03-15T05:13:37.590Z,2.60
2019-03-15T05:16:05.853Z,2.50
2019-03-15T05:18:33.764Z,2.80
2019-03-15T05:21:01.755Z,2.90
2019-03-15T05:23:29.653Z,3.40
2019-03-15T05:25:57.568Z,3.58
2019-03-15T05:28:25.491Z,3.10
2019-03-15T05:30:53.484Z,3.40
2019-03-15T05:33:21.415Z,3.10
2019-03-15T05:35:49.418Z,4.15
2019-03-15T05:38:17.752Z,3.60
2019-03-15T05:40:53.302Z,4.05
2019-03-15T05:43:21.256Z,4.40
2019-03-15T05:45:49.204Z,4.42
2019-03-15T05:48:17.146Z,4.62
2019-03-15T05:50:47.103Z,4.55
2019-03-15T05:53:15.623Z,5.85
2019-03-15T05:55:43.594Z,5.75
2019-03-15T05:58:11.551Z,5.25
2019-03-15T06:00:39.400Z,6.00
2019-03-15T06:03:07.501Z,5.97
2019-03-15T06:05:39.799Z,5.33
2019-03-15T06:08:07.677Z,5.60
2019-03-15T06:10:35.585Z,5.83
2019-03-15T06:13:04.713Z,5.40
2019-03-15T06:15:32.670Z,5.35
2019-03-15T06:18:00.694Z,5.72
2019-03-15T06:20:28.715Z,5.42
2019-03-15T06:22:56.593Z,5.22
2019-03-15T06:25:24.508Z,5.97
2019-03-15T06:27:54.016Z,5.92
2019-03-15T06:30:22.275Z,5.50
2019-03-15T06:32:50.162Z,8.00
2019-03-15T06:35:18.086Z,6.28
2019-03-15T06:37:45.993Z,5.42
2019-03-15T06:40:14.197Z,5.10
2019-03-15T06:42:43.463Z,5.25
2019-03-15T06:45:11.587Z,5.83
2019-03-15T06:47:39.598Z,5.40
2019-03-15T06:50:08.737Z,5.95
2019-03-15T06:52:36.662Z,5.92
2019-03-15T06:55:05.437Z,5.60
2019-03-15T06:57:33.858Z,5.40
2019-03-15T07:00:01.753Z,4.83
2019-03-15T07:02:29.584Z,5.72
2019-03-15T07:04:57.461Z,4.65
2019-03-15T07:07:25.326Z,5.20
2019-03-15T07:09:53.231Z,4.22
2019-03-15T07:12:21.118Z,3.67
2019-03-15T07:14:49.003Z,4.12
2019-03-15T07:17:16.874Z,4.85
2019-03-15T07:19:44.797Z,3.40
2019-03-15T07:22:12.639Z,4.47
2019-03-15T07:24:43.548Z,4.60
2019-03-15T07:27:13.255Z,5.33
2019-03-15T07:29:40.560Z,3.98
2019-03-15T07:32:08.463Z,4.60
2019-03-15T07:34:36.306Z,4.55
2019-03-15T07:37:04.198Z,6.62
2019-03-15T07:39:32.196Z,4.90
2019-03-15T07:42:00.042Z,4.47
2019-03-15T07:44:27.850Z,4.95
2019-03-15T07:46:55.841Z,5.80
2019-03-15T07:49:23.700Z,3.98
2019-03-15T07:51:51.566Z,5.37
2019-03-15T07:54:19.419Z,4.60
2019-03-15T07:56:47.283Z,6.10
2019-03-15T07:59:15.160Z,4.60
2019-03-15T08:01:43.084Z,3.92
2019-03-15T08:04:17.144Z,6.72
2019-03-15T08:06:40.561Z,4.53
2019-03-15T08:09:08.419Z,6.28
2019-03-15T08:11:36.371Z,5.53
2019-03-15T08:14:04.295Z,6.05
2019-03-15T08:16:34.458Z,5.90
2019-03-15T08:19:04.849Z,7.08
2019-03-15T08:21:31.313Z,5.70
2019-03-15T08:23:59.213Z,5.65
2019-03-15T08:26:29.977Z,5.92
2019-03-15T08:28:56.659Z,6.90
2019-03-15T08:31:24.566Z,7.50
2019-03-15T08:33:52.464Z,7.87
2019-03-15T08:36:20.745Z,5.20
2019-03-15T08:38:48.581Z,7.95
2019-03-15T08:41:16.414Z,6.85
2019-03-15T08:43:46.050Z,6.30
2019-03-15T08:46:13.812Z,6.45
2019-03-15T08:48:41.685Z,6.47
2019-03-15T08:51:10.861Z,5.75
2019-03-15T08:53:38.936Z,6.65
2019-03-15T08:56:06.771Z,7.55
2019-03-15T08:58:37.785Z,6.37
2019-03-15T09:01:05.590Z,7.75
2019-03-15T09:03:34.429Z,5.92
2019-03-15T09:06:02.712Z,6.50
2019-03-15T09:08:30.549Z,6.20
2019-03-15T09:10:58.397Z,6.67
2019-03-15T09:13:26.247Z,5.85
2019-03-15T09:15:54.086Z,5.85
2019-03-15T09:18:22.030Z,6.40
2019-03-15T09:20:49.910Z,6.53
2019-03-15T09:23:17.731Z,7.30
2019-03-15T09:25:45.690Z,7.20
2019-03-15T09:28:13.564Z,8.33
2019-03-15T09:30:41.481Z,8.00
2019-03-15T09:33:09.330Z,7.58
2019-03-15T09:35:37.191Z,7.37
2019-03-15T09:38:05.017Z,7.35
2019-03-15T09:40:32.869Z,7.53
2019-03-15T09:43:00.705Z,8.75
2019-03-15T09:45:28.575Z,6.80
2019-03-15T09:47:56.451Z,8.78
2019-03-15T09:50:35.852Z,7.80
2019-03-15T09:52:54.074Z,7.75
2019-03-15T09:55:32.198Z,7.47
2019-03-15T09:57:51.562Z,8.05
2019-03-15T10:00:19.459Z,7.50
2019-03-15T10:02:47.426Z,8.98
2019-03-15T10:05:15.344Z,8.05
2019-03-15T10:07:45.046Z,8.48
2019-03-15T10:10:15.529Z,7.92
2019-03-15T10:12:43.326Z,7.95
2019-03-15T10:15:12.746Z,8.40
2019-03-15T10:17:40.858Z,9.28
2019-03-15T10:20:12.386Z,9.55
2019-03-15T10:22:39.512Z,8.65
2019-03-15T10:25:07.725Z,7.90
2019-03-15T10:27:38.727Z,8.33
2019-03-15T10:30:07.384Z,8.58
2019-03-15T10:32:35.267Z,8.25
2019-03-15T10:35:03.169Z,7.45
2019-03-15T10:37:32.106Z,8.10
2019-03-15T10:40:02.195Z,7.80
2019-03-15T10:42:31.681Z,8.08
2019-03-15T10:45:01.318Z,8.20
2019-03-15T10:47:29.348Z,7.90
2019-03-15T10:49:57.708Z,8.08
2019-03-15T10:52:27.232Z,7.80
2019-03-15T10:54:56.778Z,8.43
2019-03-15T10:57:24.705Z,8.93
2019-03-15T10:59:52.622Z,8.50
2019-03-15T11:02:22.494Z,9.28
2019-03-15T11:04:50.820Z,11.03
2019-03-15T11:07:18.670Z,12.00
2019-03-15T11:09:46.622Z,11.93
2019-03-15T11:12:16.523Z,14.58
2019-03-15T11:14:44.402Z,12.10
2019-03-15T11:17:12.269Z,12.50
2019-03-15T11:19:40.191Z,12.55
2019-03-15T11:22:08.145Z,12.58
2019-03-15T11:24:36.100Z,12.90
2019-03-15T11:27:03.936Z,13.83
2019-03-15T11:29:31.874Z,11.33
2019-03-15T11:31:59.779Z,12.95
2019-03-15T11:34:28.922Z,10.98
2019-03-15T11:36:58.469Z,10.43
2019-03-15T11:39:26.467Z,11.70
2019-03-15T11:41:54.390Z,11.03
2019-03-15T11:44:23.929Z,11.63
2019-03-15T11:46:52.046Z,10.68
2019-03-15T11:49:21.960Z,11.05
2019-03-15T11:51:51.066Z,9.83
2019-03-15T11:54:18.912Z,9.83
2019-03-15T11:56:46.789Z,9.78
2019-03-15T11:59:14.678Z,8.35
2019-03-15T12:01:42.673Z,7.85
2019-03-15T12:04:10.594Z,9.18
2019-03-15T12:06:38.503Z,8.20
2019-03-15T12:09:07.218Z,8.48
2019-03-15T12:11:35.229Z,7.53
2019-03-15T12:14:03.106Z,8.53
2019-03-15T12:16:31.019Z,8.35
2019-03-15T12:18:58.862Z,6.97
2019-03-15T12:21:26.833Z,5.83
2019-03-15T12:23:54.718Z,7.08
2019-03-15T12:26:22.609Z,5.97
2019-03-15T12:28:52.876Z,4.75
2019-03-15T12:31:20.856Z,5.78
2019-03-15T12:33:48.702Z,5.40
2019-03-15T12:36:16.581Z,7.20
2019-03-15T12:38:44.425Z,6.15
2019-03-15T12:41:12.267Z,5.40
2019-03-15T12:43:40.256Z,5.62
2019-03-15T12:46:08.085Z,5.85
2019-03-15T12:48:35.939Z,5.33
2019-03-15T12:51:03.783Z,5.08
2019-03-15T12:53:31.642Z,5.78
2019-03-15T12:55:59.499Z,5.75
2019-03-15T12:58:27.364Z,5.50
2019-03-15T13:00:55.280Z,4.15
2019-03-15T13:03:23.149Z,4.75
2019-03-15T13:05:50.994Z,5.40
2019-03-15T13:08:18.952Z,4.78
2019-03-15T13:10:46.822Z,6.10
2019-03-15T13:13:14.835Z,5.35
2019-03-15T13:15:42.971Z,5.33
2019-03-15T13:18:10.849Z,5.45
2019-03-15T13:20:38.850Z,5.00
2019-03-15T13:23:06.744Z,5.35
2019-03-15T13:25:34.562Z,5.15
2019-03-15T13:28:02.441Z,5.37
2019-03-15T13:30:30.308Z,4.53
2019-03-15T13:32:58.258Z,3.67
2019-03-15T13:35:26.184Z,4.65
2019-03-15T13:37:54.057Z,3.52
2019-03-15T13:40:21.942Z,3.30
2019-03-15T13:42:49.784Z,4.37
2019-03-15T13:45:17.665Z,4.87
2019-03-15T13:47:45.910Z,5.53
2019-03-15T13:50:13.790Z,5.33
2019-03-15T13:52:41.728Z,5.72
2019-03-15T13:55:09.596Z,6.60
2019-03-15T13:57:37.436Z,7.17
2019-03-15T14:00:05.559Z,7.53
2019-03-15T14:02:33.530Z,6.20
2019-03-15T14:05:01.410Z,6.85
2019-03-15T14:07:29.262Z,7.15
2019-03-15T14:09:57.192Z,6.42
2019-03-15T14:12:25.058Z,4.53
2019-03-15T14:14:52.930Z,6.42
2019-03-15T14:17:20.811Z,4.33
2019-03-15T14:19:48.685Z,5.65
2019-03-15T14:22:16.578Z,4.53
2019-03-15T14:24:44.417Z,4.55
2019-03-15T14:27:12.328Z,3.70
2019-03-15T14:29:40.173Z,4.00
2019-03-15T14:32:08.074Z,3.00
2019-03-15T14:34:35.931Z,3.58
2019-03-15T14:37:04.004Z,3.70
2019-03-15T14:39:31.901Z,3.20
2019-03-15T14:41:59.959Z,2.80
2019-03-15T14:44:28.084Z,3.35
2019-03-15T14:46:56.125Z,3.42
2019-03-15T14:49:24.011Z,3.50
2019-03-15T14:51:51.895Z,3.60
2019-03-15T14:54:19.809Z,3.77
2019-03-15T14:56:47.692Z,2.90
2019-03-15T14:59:15.563Z,3.08
2019-03-15T15:01:43.491Z,2.05
2019-03-15T15:04:11.344Z,2.10
2019-03-15T15:06:39.221Z,2.60
2019-03-15T15:09:07.147Z,4.50
2019-03-15T15:11:35.020Z,2.10
2019-03-15T15:14:02.922Z,2.60
2019-03-15T15:16:30.802Z,2.10
2019-03-15T15:18:58.722Z,2.42
2019-03-15T15:21:26.651Z,3.10
2019-03-15T15:23:54.547Z,1.90
2019-03-15T15:26:22.455Z,2.52
2019-03-15T15:28:50.332Z,2.40
2019-03-15T15:31:18.210Z,2.60
2019-03-15T15:33:46.082Z,2.70
2019-03-15T15:36:13.955Z,2.20
2019-03-15T15:38:41.957Z,2.50
2019-03-15T15:41:09.826Z,3.00
2019-03-15T15:43:37.716Z,2.83
2019-03-15T15:46:05.563Z,2.10
2019-03-15T15:48:33.768Z,2.58
2019-03-15T15:51:01.687Z,2.10
2019-03-15T15:53:29.607Z,2.45
2019-03-15T15:55:57.485Z,2.65
2019-03-15T15:58:25.418Z,2.90
2019-03-15T16:00:53.287Z,3.00
2019-03-15T16:03:21.181Z,3.02
2019-03-15T16:05:49.060Z,2.25
2019-03-15T16:08:16.977Z,2.50
2019-03-15T16:10:44.806Z,2.90
2019-03-15T16:13:17.278Z,3.22
2019-03-15T16:15:42.259Z,2.58
2019-03-15T16:18:10.143Z,3.50
2019-03-15T16:20:38.087Z,2.72
2019-03-15T16:23:05.967Z,3.37
2019-03-15T16:25:33.898Z,3.27
2019-03-15T16:28:01.810Z,2.90
2019-03-15T16:30:29.691Z,3.30
2019-03-15T16:32:57.736Z,2.55
2019-03-15T16:35:25.600Z,2.95
2019-03-15T16:37:53.466Z,3.83
2019-03-15T16:40:21.345Z,3.12
2019-03-15T16:42:49.316Z,3.52
2019-03-15T16:45:17.166Z,3.08
2019-03-15T16:47:45.029Z,6.33
2019-03-15T16:50:13.774Z,3.65
2019-03-15T16:52:41.667Z,3.00
2019-03-15T16:55:09.971Z,3.37
2019-03-15T16:57:37.834Z,3.67
2019-03-15T17:00:05.762Z,3.55
2019-03-15T17:02:33.712Z,3.35
2019-03-15T17:05:01.549Z,3.75
2019-03-15T17:07:29.426Z,4.08
2019-03-15T17:09:57.268Z,4.00
2019-03-15T17:12:25.141Z,4.40
2019-03-15T17:14:53.029Z,4.00
2019-03-15T17:17:20.934Z,3.65
2019-03-15T17:19:48.751Z,3.85
2019-03-15T17:22:16.698Z,3.75
2019-03-15T17:24:44.497Z,4.15
2019-03-15T17:27:15.167Z,3.58
2019-03-15T17:29:43.028Z,3.50
2019-03-15T17:32:10.912Z,3.52
2019-03-15T17:34:38.750Z,3.85
2019-03-15T17:37:07.136Z,3.90
2019-03-15T17:39:35.181Z,3.85
2019-03-15T17:42:03.558Z,4.40
2019-03-15T17:44:31.459Z,4.35
2019-03-15T17:46:59.331Z,3.77
2019-03-15T17:49:27.287Z,3.27
2019-03-15T17:51:55.162Z,3.02
2019-03-15T17:54:23.030Z,5.08
2019-03-15T17:56:50.900Z,3.25
2019-03-15T17:59:18.763Z,2.52
2019-03-15T18:01:46.632Z,2.05
2019-03-15T18:04:14.547Z,2.87
2019-03-15T18:06:42.411Z,2.70
2019-03-15T18:09:10.301Z,3.58
2019-03-15T18:11:38.152Z,2.92
2019-03-15T18:14:06.497Z,4.25
2019-03-15T18:16:34.354Z,2.20
2019-03-15T18:19:02.347Z,2.42
2019-03-15T18:21:30.237Z,2.87
2019-03-15T18:23:58.122Z,2.22
2019-03-15T18:26:26.029Z,1.60
2019-03-15T18:28:53.890Z,2.47
2019-03-15T18:31:21.770Z,2.05
2019-03-15T18:33:49.708Z,2.20
2019-03-15T18:36:17.570Z,2.83
2019-03-15T18:38:45.439Z,2.17
2019-03-15T18:41:13.378Z,2.58
2019-03-15T18:43:41.210Z,1.98
2019-03-15T18:46:09.544Z,3.12
2019-03-15T18:48:37.454Z,2.30
2019-03-15T18:51:05.343Z,2.52
2019-03-15T18:53:33.192Z,2.05
2019-03-15T18:56:01.203Z,2.40
2019-03-15T18:58:29.066Z,2.22
2019-03-15T19:00:56.967Z,1.57
2019-03-15T19:03:24.785Z,2.62
2019-03-15T19:05:52.684Z,2.17
2019-03-15T19:08:20.520Z,1.72
2019-03-15T19:10:48.422Z,2.35
2019-03-15T19:13:16.281Z,2.60
2019-03-15T19:15:44.182Z,2.70
2019-03-15T19:18:12.469Z,2.25
2019-03-15T19:20:40.433Z,2.62
2019-03-15T19:23:08.340Z,2.15
2019-03-15T19:25:36.276Z,2.70
2019-03-15T19:28:04.150Z,2.70
2019-03-15T19:30:32.041Z,3.37
2019-03-15T19:32:59.946Z,3.60
2019-03-15T19:35:27.828Z,4.67
2019-03-15T19:37:55.714Z,5.90
2019-03-15T19:40:23.583Z,5.65
2019-03-15T19:42:51.527Z,4.62
2019-03-15T19:45:19.353Z,4.95
2019-03-15T19:47:47.268Z,6.65
2019-03-15T19:50:15.183Z,3.10
2019-03-15T19:52:43.055Z,2.77
2019-03-15T19:55:11.356Z,3.05
2019-03-15T19:57:39.197Z,2.80
2019-03-15T20:00:08.801Z,2.00
2019-03-15T20:02:36.955Z,2.77
2019-03-15T20:05:05.265Z,2.33
2019-03-15T20:07:33.160Z,2.05
2019-03-15T20:10:01.212Z,2.10
2019-03-15T20:12:29.077Z,1.60
2019-03-15T20:14:56.978Z,2.00
2019-03-15T20:17:24.883Z,2.50
2019-03-15T20:19:52.852Z,2.80
2019-03-15T20:22:22.309Z,2.85
2019-03-15T20:24:50.300Z,1.80
2019-03-15T20:27:18.214Z,1.87
2019-03-15T20:29:46.137Z,1.80
2019-03-15T20:32:14.105Z,1.55
2019-03-15T20:34:42.036Z,1.75
2019-03-15T20:37:09.899Z,1.95
2019-03-15T20:39:37.791Z,2.08
2019-03-15T20:42:05.658Z,2.20
2019-03-15T20:44:33.544Z,1.67
2019-03-15T20:47:01.377Z,1.30
2019-03-15T20:49:29.348Z,1.75
2019-03-15T20:51:57.208Z,2.00
2019-03-15T20:54:25.070Z,1.62
2019-03-15T20:56:53.093Z,1.80
2019-03-15T20:59:20.954Z,1.65
2019-03-15T21:01:49.222Z,1.72
2019-03-15T21:04:17.189Z,1.90
2019-03-15T21:06:44.990Z,2.20
2019-03-15T21:09:12.845Z,1.80
2019-03-15T21:11:40.732Z,1.87
2019-03-15T21:14:08.564Z,1.95
2019-03-15T21:16:36.734Z,2.08
2019-03-15T21:19:04.647Z,2.08
2019-03-15T21:21:32.551Z,1.80
2019-03-15T21:24:00.436Z,1.95
2019-03-15T21:26:28.292Z,1.95
2019-03-15T21:28:56.183Z,2.05
2019-03-15T21:31:24.135Z,2.45
2019-03-15T21:33:52.044Z,1.87
2019-03-15T21:36:19.871Z,2.05
2019-03-15T21:38:48.660Z,2.30
2019-03-15T21:41:16.713Z,2.35
2019-03-15T21:43:44.614Z,2.02
2019-03-15T21:46:12.548Z,2.12
2019-03-15T21:48:40.451Z,2.30
2019-03-15T21:51:08.333Z,1.45
2019-03-15T21:53:36.185Z,2.12
2019-03-15T21:56:04.023Z,2.35
2019-03-15T21:58:31.870Z,2.00
2019-03-15T22:01:02.591Z,1.85
2019-03-15T22:03:29.323Z,1.65
2019-03-15T22:05:57.202Z,2.30
2019-03-15T22:08:25.270Z,1.90
2019-03-15T22:10:53.166Z,1.80
2019-03-15T22:13:21.072Z,2.20
2019-03-15T22:15:48.974Z,2.92
2019-03-15T22:18:16.854Z,2.37
2019-03-15T22:20:44.820Z,2.30
2019-03-15T22:23:12.728Z,2.35
2019-03-15T22:25:40.572Z,2.17
2019-03-15T22:28:08.437Z,3.20
2019-03-15T22:30:36.317Z,2.35
2019-03-15T22:33:04.175Z,2.05
2019-03-15T22:35:32.037Z,3.00
2019-03-15T22:37:59.889Z,3.10
2019-03-15T22:40:27.931Z,2.83
2019-03-15T22:42:55.745Z,2.17
2019-03-15T22:45:23.662Z,2.42
2019-03-15T22:47:51.730Z,3.75
2019-03-15T22:50:19.646Z,2.70
2019-03-15T22:52:47.461Z,2.52
2019-03-15T22:55:15.362Z,2.30
2019-03-15T22:57:43.221Z,2.20
2019-03-15T23:00:12.415Z,2.50
2019-03-15T23:02:40.509Z,3.58
2019-03-15T23:05:08.477Z,2.10
2019-03-15T23:07:36.332Z,2.87
2019-03-15T23:10:04.293Z,2.33
2019-03-15T23:12:32.141Z,2.20
2019-03-15T23:14:59.979Z,2.22
2019-03-15T23:17:27.863Z,2.00
2019-03-15T23:19:55.698Z,2.05
2019-03-15T23:22:23.598Z,1.95
2019-03-15T23:24:51.453Z,2.25
2019-03-15T23:27:19.374Z,2.65
2019-03-15T23:29:47.267Z,5.15
2019-03-15T23:32:15.179Z,2.00
2019-03-15T23:34:43.026Z,2.10
2019-03-15T23:37:10.899Z,2.30
2019-03-15T23:39:38.729Z,2.45
2019-03-15T23:42:06.676Z,2.50
2019-03-15T23:44:34.536Z,1.85
2019-03-15T23:47:02.477Z,2.05
2019-03-15T23:49:30.309Z,2.33
2019-03-15T23:51:58.136Z,2.12
2019-03-15T23:54:26.033Z,2.62
2019-03-15T23:56:53.866Z,1.80
2019-03-15T23:59:21.735Z,1.80
